createdAt,value
2019-02-20T00:00:06.103Z,98369.00
2019-02-20T00:05:14.614Z,98376.00
2019-02-20T00:10:33.765Z,98382.00
2019-02-20T00:15:40.656Z,98376.00
2019-02-20T00:20:49.260Z,98380.00
2019-02-20T00:25:56.155Z,98393.00
2019-02-20T00:31:03.086Z,98389.00
2019-02-20T00:36:10.412Z,98392.00
2019-02-20T00:41:35.917Z,98406.00
2019-02-20T00:46:47.157Z,98404.00
2019-02-20T00:51:55.645Z,98406.00
2019-02-20T00:57:02.607Z,98415.00
2019-02-20T01:02:09.500Z,98409.00
2019-02-20T01:07:15.986Z,98404.00
2019-02-20T01:12:22.539Z,98407.00
2019-02-20T01:17:28.530Z,98405.00
2019-02-20T01:22:34.510Z,98406.00
2019-02-20T01:27:40.519Z,98397.00
2019-02-20T01:32:47.388Z,98393.00
2019-02-20T01:37:54.163Z,98395.00
2019-02-20T01:43:00.987Z,98386.00
2019-02-20T01:48:07.837Z,98398.00
2019-02-20T01:53:14.656Z,98399.00
2019-02-20T01:58:21.486Z,98396.00
2019-02-20T02:03:27.444Z,98400.00
2019-02-20T02:08:33.413Z,98393.00
2019-02-20T02:13:39.396Z,98387.00
2019-02-20T02:18:46.033Z,98403.00
2019-02-20T02:24:14.253Z,98393.00
2019-02-20T02:29:20.946Z,98389.00
2019-02-20T02:34:26.896Z,98385.00
2019-02-20T02:39:32.830Z,98406.00
2019-02-20T02:44:39.693Z,98392.00
2019-02-20T02:49:46.499Z,98396.00
2019-02-20T02:54:53.040Z,98402.00
2019-02-20T03:00:00.311Z,98407.00
2019-02-20T03:05:08.718Z,98390.00
2019-02-20T03:10:27.747Z,98409.00
2019-02-20T03:15:33.677Z,98410.00
2019-02-20T03:20:40.508Z,98393.00
2019-02-20T03:25:47.067Z,98414.00
2019-02-20T03:30:54.892Z,98406.00
2019-02-20T03:36:01.972Z,98409.00
2019-02-20T03:41:09.198Z,98405.00
2019-02-20T03:46:17.793Z,98413.00
2019-02-20T03:51:23.763Z,98422.00
2019-02-20T03:56:29.907Z,98414.00
2019-02-20T04:01:35.926Z,98428.00
2019-02-20T04:06:42.879Z,98433.00
2019-02-20T04:11:48.840Z,98435.00
2019-02-20T04:16:55.727Z,98430.00
2019-02-20T04:22:03.033Z,98426.00
2019-02-20T04:27:10.024Z,98423.00
2019-02-20T04:32:16.811Z,98423.00
2019-02-20T04:37:23.187Z,98437.00
2019-02-20T04:42:29.235Z,98430.00
2019-02-20T04:47:35.226Z,98431.00
2019-02-20T04:52:43.319Z,98429.00
2019-02-20T04:57:53.771Z,98433.00
2019-02-20T05:03:00.741Z,98437.00
2019-02-20T05:08:07.525Z,98433.00
2019-02-20T05:13:14.378Z,98431.00
2019-02-20T05:18:21.538Z,98439.00
2019-02-20T05:23:27.488Z,98437.00
2019-02-20T05:28:34.562Z,98439.00
2019-02-20T05:33:41.560Z,98442.00
2019-02-20T05:38:49.384Z,98447.00
2019-02-20T05:43:56.195Z,98453.00
2019-02-20T05:49:02.940Z,98457.00
2019-02-20T05:54:09.831Z,98456.00
2019-02-20T05:59:17.081Z,98459.00
2019-02-20T06:04:25.201Z,98461.00
2019-02-20T06:09:31.175Z,98482.00
2019-02-20T06:14:37.738Z,98477.00
2019-02-20T06:19:43.707Z,98491.00
2019-02-20T06:24:52.218Z,98489.00
2019-02-20T06:29:58.644Z,98507.00
2019-02-20T06:35:06.595Z,98494.00
2019-02-20T06:40:13.669Z,98509.00
2019-02-20T06:45:20.417Z,98506.00
2019-02-20T06:50:26.376Z,98509.00
2019-02-20T06:55:32.354Z,98515.00
2019-02-20T07:00:39.379Z,98523.00
2019-02-20T07:05:46.238Z,98525.00
2019-02-20T07:11:12.525Z,98521.00
2019-02-20T07:16:45.462Z,98555.00
2019-02-20T07:22:08.692Z,98562.00
2019-02-20T07:27:37.105Z,98565.00
2019-02-20T07:32:43.826Z,98565.00
2019-02-20T07:37:50.895Z,98550.00
2019-02-20T07:42:57.849Z,98568.00
2019-02-20T07:48:05.155Z,98571.00
2019-02-20T07:53:11.799Z,98588.00
2019-02-20T07:58:18.663Z,98586.00
2019-02-20T08:03:24.696Z,98593.00
2019-02-20T08:08:33.239Z,98593.00
2019-02-20T08:13:40.143Z,98597.00
2019-02-20T08:18:47.067Z,98614.00
2019-02-20T08:23:54.019Z,98616.00
2019-02-20T08:29:00.835Z,98629.00
2019-02-20T08:34:08.140Z,98618.00
2019-02-20T08:39:14.800Z,98624.00
2019-02-20T08:44:21.632Z,98631.00
2019-02-20T08:49:27.602Z,98632.00
2019-02-20T08:54:34.447Z,98632.00
2019-02-20T08:59:41.272Z,98648.00
2019-02-20T09:04:48.472Z,98650.00
2019-02-20T09:09:55.613Z,98650.00
2019-02-20T09:15:02.447Z,98661.00
2019-02-20T09:20:14.163Z,98649.00
2019-02-20T09:25:21.264Z,98652.00
2019-02-20T09:30:28.866Z,98656.00
2019-02-20T09:35:35.274Z,98652.00
2019-02-20T09:40:43.073Z,98656.00
2019-02-20T09:45:50.238Z,98656.00
2019-02-20T09:50:56.796Z,98655.00
2019-02-20T09:56:04.328Z,98661.00
2019-02-20T10:01:11.285Z,98673.00
2019-02-20T10:06:18.339Z,98676.00
2019-02-20T10:11:24.451Z,98670.00
2019-02-20T10:16:31.333Z,98680.00
2019-02-20T10:21:37.313Z,98668.00
2019-02-20T10:26:44.340Z,98674.00
2019-02-20T10:31:50.850Z,98681.00
2019-02-20T10:36:57.677Z,98689.00
2019-02-20T10:42:04.756Z,98683.00
2019-02-20T10:47:11.627Z,98685.00
2019-02-20T10:52:18.696Z,98678.00
2019-02-20T10:57:24.785Z,98694.00
2019-02-20T11:02:31.488Z,98688.00
2019-02-20T11:07:56.746Z,98678.00
2019-02-20T11:13:06.091Z,98694.00
2019-02-20T11:18:13.086Z,98682.00
2019-02-20T11:23:20.208Z,98691.00
2019-02-20T11:28:27.218Z,98693.00
2019-02-20T11:33:35.178Z,98684.00
2019-02-20T11:38:41.605Z,98679.00
2019-02-20T11:43:48.783Z,98685.00
2019-02-20T11:48:55.539Z,98692.00
2019-02-20T11:54:02.164Z,98677.00
2019-02-20T11:59:09.521Z,98676.00
2019-02-20T12:04:16.422Z,98691.00
2019-02-20T12:09:24.513Z,98689.00
2019-02-20T12:14:32.822Z,98681.00
2019-02-20T12:19:39.893Z,98669.00
2019-02-20T12:24:47.015Z,98677.00
2019-02-20T12:29:53.930Z,98655.00
2019-02-20T12:35:00.797Z,98670.00
2019-02-20T12:40:10.084Z,98669.00
2019-02-20T12:45:16.745Z,98664.00
2019-02-20T12:50:24.929Z,98661.00
2019-02-20T12:55:32.643Z,98659.00
2019-02-20T13:00:39.455Z,98663.00
2019-02-20T13:05:47.945Z,98652.00
2019-02-20T13:10:56.667Z,98656.00
2019-02-20T13:16:09.411Z,98651.00
2019-02-20T13:21:11.877Z,98655.00
2019-02-20T13:26:18.897Z,98660.00
2019-02-20T13:31:25.058Z,98666.00
2019-02-20T13:36:31.057Z,98673.00
2019-02-20T13:41:37.055Z,98664.00
2019-02-20T13:46:44.568Z,98667.00
2019-02-20T13:51:51.997Z,98675.00
2019-02-20T13:57:02.025Z,98659.00
2019-02-20T14:02:07.862Z,98663.00
2019-02-20T14:07:16.858Z,98678.00
2019-02-20T14:12:25.145Z,98674.00
2019-02-20T14:17:43.816Z,98677.00
2019-02-20T14:22:50.909Z,98663.00
2019-02-20T14:27:57.294Z,98668.00
2019-02-20T14:33:03.934Z,98669.00
2019-02-20T14:38:10.463Z,98670.00
2019-02-20T14:43:18.090Z,98675.00
2019-02-20T14:48:25.075Z,98661.00
2019-02-20T14:53:33.761Z,98665.00
2019-02-20T14:58:40.777Z,98683.00
2019-02-20T15:03:47.596Z,98677.00
2019-02-20T15:08:54.811Z,98679.00
2019-02-20T15:14:01.715Z,98675.00
2019-02-20T15:19:08.621Z,98689.00
2019-02-20T15:24:15.596Z,98690.00
2019-02-20T15:29:22.232Z,98683.00
2019-02-20T15:34:28.519Z,98685.00
2019-02-20T15:39:34.506Z,98686.00
2019-02-20T15:44:41.393Z,98690.00
2019-02-20T15:49:47.919Z,98695.00
2019-02-20T15:54:54.565Z,98689.00
2019-02-20T16:00:01.676Z,98689.00
2019-02-20T16:05:10.072Z,98691.00
2019-02-20T16:10:17.604Z,98693.00
2019-02-20T16:15:24.490Z,98700.00
2019-02-20T16:20:31.050Z,98704.00
2019-02-20T16:25:37.335Z,98711.00
2019-02-20T16:30:44.372Z,98715.00
2019-02-20T16:35:53.892Z,98721.00
2019-02-20T16:41:00.756Z,98722.00
2019-02-20T16:46:08.070Z,98731.00
2019-02-20T16:51:16.478Z,98738.00
2019-02-20T16:56:23.591Z,98743.00
2019-02-20T17:01:31.224Z,98738.00
2019-02-20T17:06:38.328Z,98757.00
2019-02-20T17:11:45.244Z,98755.00
2019-02-20T17:16:51.785Z,98772.00
2019-02-20T17:21:58.915Z,98776.00
2019-02-20T17:27:07.514Z,98780.00
2019-02-20T17:32:14.599Z,98783.00
2019-02-20T17:37:21.594Z,98797.00
2019-02-20T17:42:27.660Z,98794.00
2019-02-20T17:47:34.687Z,98810.00
2019-02-20T17:52:41.209Z,98798.00
2019-02-20T17:57:48.567Z,98809.00
2019-02-20T18:02:55.458Z,98799.00
2019-02-20T18:08:02.066Z,98818.00
2019-02-20T18:13:08.695Z,98799.00
2019-02-20T18:18:28.259Z,98805.00
2019-02-20T18:23:34.426Z,98811.00
2019-02-20T18:28:41.265Z,98817.00
2019-02-20T18:33:48.133Z,98816.00
2019-02-20T18:38:54.985Z,98822.00
2019-02-20T18:44:02.105Z,98824.00
2019-02-20T18:49:09.918Z,98831.00
2019-02-20T18:54:17.231Z,98831.00
2019-02-20T18:59:25.433Z,98825.00
2019-02-20T19:04:32.048Z,98831.00
2019-02-20T19:09:40.357Z,98833.00
2019-02-20T19:15:18.107Z,98841.00
2019-02-20T19:20:41.677Z,98829.00
2019-02-20T19:26:22.517Z,98839.00
2019-02-20T19:32:00.148Z,98848.00
2019-02-20T19:37:17.292Z,98841.00
2019-02-20T19:42:36.508Z,98852.00
2019-02-20T19:47:55.813Z,98847.00
2019-02-20T19:53:27.217Z,98849.00
2019-02-20T19:59:07.208Z,98847.00
2019-02-20T20:04:40.067Z,98846.00
2019-02-20T20:10:43.265Z,98842.00
2019-02-20T20:16:18.097Z,98850.00
2019-02-20T20:21:49.518Z,98859.00
2019-02-20T20:27:42.375Z,98861.00
2019-02-20T20:33:29.425Z,98859.00
2019-02-20T20:39:02.893Z,98852.00
2019-02-20T20:44:30.346Z,98863.00
2019-02-20T20:50:12.718Z,98858.00
2019-02-20T20:55:44.455Z,98847.00
2019-02-20T21:01:03.562Z,98848.00
2019-02-20T21:06:50.013Z,98844.00
2019-02-20T21:12:33.418Z,98845.00
2019-02-20T21:17:52.716Z,98846.00
2019-02-20T21:23:27.270Z,98846.00
2019-02-20T21:28:47.801Z,98856.00
2019-02-20T21:34:22.214Z,98852.00
2019-02-20T21:39:54.026Z,98841.00
2019-02-20T21:45:28.757Z,98840.00
2019-02-20T21:50:56.997Z,98831.00
2019-02-20T21:56:19.686Z,98851.00
2019-02-20T22:01:35.895Z,98843.00
2019-02-20T22:07:10.796Z,98847.00
2019-02-20T22:12:30.606Z,98846.00
2019-02-20T22:18:01.503Z,98847.00
2019-02-20T22:23:39.243Z,98854.00
2019-02-20T22:29:10.267Z,98855.00
2019-02-20T22:34:54.145Z,98841.00
2019-02-20T22:40:32.145Z,98850.00
2019-02-20T22:46:02.042Z,98852.00
2019-02-20T22:51:53.029Z,98848.00
2019-02-20T22:57:36.794Z,98844.00
2019-02-20T23:03:02.328Z,98853.00
2019-02-20T23:08:43.059Z,98848.00
2019-02-20T23:14:18.153Z,98850.00
2019-02-20T23:19:24.153Z,98855.00
2019-02-20T23:24:30.995Z,98860.00
2019-02-20T23:29:36.979Z,98861.00
2019-02-20T23:34:45.060Z,98873.00
2019-02-20T23:39:52.200Z,98867.00
2019-02-20T23:44:58.646Z,98867.00
2019-02-20T23:50:08.985Z,98872.00
2019-02-20T23:55:15.865Z,98872.00
